createdAt,value
2018-03-15T00:00:02.132Z,994.70
2018-03-15T00:01:02.078Z,994.67
2018-03-15T00:02:02.053Z,994.68
2018-03-15T00:03:01.980Z,994.64
2018-03-15T00:04:01.921Z,994.64
2018-03-15T00:05:01.876Z,994.62
2018-03-15T00:06:01.823Z,994.61
2018-03-15T00:07:01.795Z,994.58
2018-03-15T00:08:01.722Z,994.53
2018-03-15T00:09:01.684Z,994.59
2018-03-15T00:10:01.619Z,994.58
2018-03-15T00:11:01.571Z,994.52
2018-03-15T00:12:01.536Z,994.48
2018-03-15T00:13:01.464Z,994.49
2018-03-15T00:14:01.414Z,994.51
2018-03-15T00:15:01.366Z,994.50
2018-03-15T00:16:01.312Z,994.51
2018-03-15T00:17:01.284Z,994.52
2018-03-15T00:18:01.214Z,994.50
2018-03-15T00:19:01.159Z,994.50
2018-03-15T00:20:01.105Z,994.54
2018-03-15T00:21:01.055Z,994.52
2018-03-15T00:22:01.025Z,994.49
2018-03-15T00:23:00.957Z,994.48
2018-03-15T00:24:00.900Z,994.50
2018-03-15T00:25:00.853Z,994.48
2018-03-15T00:26:00.805Z,994.51
2018-03-15T00:27:00.774Z,994.50
2018-03-15T00:28:00.699Z,994.47
2018-03-15T00:29:00.647Z,994.45
2018-03-15T00:30:00.595Z,994.49
2018-03-15T00:31:00.539Z,994.46
2018-03-15T00:32:00.514Z,994.42
2018-03-15T00:33:00.445Z,994.40
2018-03-15T00:34:00.390Z,994.42
2018-03-15T00:35:00.339Z,994.42
2018-03-15T00:36:00.288Z,994.38
2018-03-15T00:37:00.264Z,994.40
2018-03-15T00:38:00.191Z,994.43
2018-03-15T00:39:00.133Z,994.34
2018-03-15T00:40:00.086Z,994.34
2018-03-15T00:41:00.035Z,994.34
2018-03-15T00:42:00.007Z,994.33
2018-03-15T00:42:59.930Z,994.29
2018-03-15T00:43:59.877Z,994.30
2018-03-15T00:44:59.831Z,994.31
2018-03-15T00:45:59.781Z,994.32
2018-03-15T00:46:59.751Z,994.31
2018-03-15T00:47:59.675Z,994.32
2018-03-15T00:48:59.621Z,994.31
2018-03-15T00:49:59.570Z,994.35
2018-03-15T00:50:59.522Z,994.30
2018-03-15T00:51:59.494Z,994.32
2018-03-15T00:52:59.423Z,994.30
2018-03-15T00:53:59.366Z,994.31
2018-03-15T00:54:59.322Z,994.30
2018-03-15T00:55:59.264Z,994.31
2018-03-15T00:56:59.239Z,994.31
2018-03-15T00:57:59.163Z,994.28
2018-03-15T00:58:59.109Z,994.21
2018-03-15T00:59:59.064Z,994.22
2018-03-15T01:00:59.007Z,994.16
2018-03-15T01:01:58.987Z,994.17
2018-03-15T01:02:58.906Z,994.16
2018-03-15T01:03:58.852Z,994.12
2018-03-15T01:04:58.806Z,994.14
2018-03-15T01:05:58.758Z,994.11
2018-03-15T01:06:58.724Z,994.10
2018-03-15T01:07:58.648Z,994.06
2018-03-15T01:10:30.238Z,994.05
2018-03-15T01:11:30.179Z,994.02
2018-03-15T01:12:30.151Z,994.01
2018-03-15T01:13:30.077Z,993.96
2018-03-15T01:14:30.026Z,993.96
2018-03-15T01:15:29.977Z,993.98
2018-03-15T01:16:29.921Z,993.94
2018-03-15T01:17:29.898Z,993.92
2018-03-15T01:18:29.820Z,993.91
2018-03-15T01:19:29.770Z,993.89
2018-03-15T01:20:29.719Z,993.87
2018-03-15T01:21:29.662Z,993.86
2018-03-15T01:22:29.641Z,993.84
2018-03-15T01:23:29.561Z,993.82
2018-03-15T01:24:29.516Z,993.83
2018-03-15T01:25:29.457Z,993.81
2018-03-15T01:26:29.416Z,993.78
2018-03-15T01:27:29.378Z,993.72
2018-03-15T01:28:29.303Z,993.73
2018-03-15T01:29:29.257Z,993.72
2018-03-15T01:30:29.203Z,993.68
2018-03-15T01:31:29.153Z,993.61
2018-03-15T01:32:29.124Z,993.62
2018-03-15T01:33:29.049Z,993.63
2018-03-15T01:34:28.998Z,993.60
2018-03-15T01:35:28.947Z,993.57
2018-03-15T01:36:28.894Z,993.55
2018-03-15T01:37:28.866Z,993.56
2018-03-15T01:38:28.795Z,993.55
2018-03-15T01:39:28.740Z,993.52
2018-03-15T01:40:28.689Z,993.50
2018-03-15T01:41:28.636Z,993.57
2018-03-15T01:42:28.608Z,993.47
2018-03-15T01:43:28.532Z,993.48
2018-03-15T01:44:28.482Z,993.47
2018-03-15T01:45:28.431Z,993.45
2018-03-15T01:46:28.381Z,993.46
2018-03-15T01:47:28.351Z,993.39
2018-03-15T01:48:28.278Z,993.43
2018-03-15T01:49:28.222Z,993.45
2018-03-15T01:50:28.179Z,993.38
2018-03-15T01:51:28.118Z,993.37
2018-03-15T01:52:28.099Z,993.38
2018-03-15T01:53:28.015Z,993.36
2018-03-15T01:54:27.963Z,993.32
2018-03-15T01:55:27.917Z,993.34
2018-03-15T01:56:27.860Z,993.31
2018-03-15T01:57:27.837Z,993.26
2018-03-15T01:58:27.760Z,993.31
2018-03-15T01:59:27.713Z,993.26
2018-03-15T02:00:27.664Z,993.26
2018-03-15T02:01:27.606Z,993.23
2018-03-15T02:02:27.579Z,993.27
2018-03-15T02:03:27.501Z,993.20
2018-03-15T02:04:27.452Z,993.28
2018-03-15T02:05:27.409Z,993.28
2018-03-15T02:06:27.354Z,993.23
2018-03-15T02:07:27.318Z,993.27
2018-03-15T02:08:27.246Z,993.28
2018-03-15T02:09:27.194Z,993.21
2018-03-15T02:10:27.138Z,993.29
2018-03-15T02:11:27.091Z,993.30
2018-03-15T02:12:27.063Z,993.24
2018-03-15T02:13:26.990Z,993.28
2018-03-15T02:14:26.938Z,993.28
2018-03-15T02:15:26.883Z,993.27
2018-03-15T02:16:26.835Z,993.27
2018-03-15T02:17:26.807Z,993.29
2018-03-15T02:18:26.730Z,993.28
2018-03-15T02:19:26.678Z,993.28
2018-03-15T02:20:26.632Z,993.28
2018-03-15T02:21:26.574Z,993.30
2018-03-15T02:22:26.547Z,993.33
2018-03-15T02:23:26.476Z,993.29
2018-03-15T02:24:26.421Z,993.36
2018-03-15T02:25:26.374Z,993.30
2018-03-15T02:26:26.320Z,993.18
2018-03-15T02:27:26.290Z,993.23
2018-03-15T02:28:26.217Z,993.24
2018-03-15T02:29:26.164Z,993.19
2018-03-15T02:30:26.115Z,993.16
2018-03-15T02:31:26.061Z,993.14
2018-03-15T02:32:26.038Z,993.16
2018-03-15T02:33:25.962Z,993.17
2018-03-15T02:34:25.904Z,993.17
2018-03-15T02:35:25.857Z,993.18
2018-03-15T02:36:25.806Z,993.16
2018-03-15T02:37:25.773Z,993.19
2018-03-15T02:38:25.701Z,993.15
2018-03-15T02:39:25.651Z,993.20
2018-03-15T02:40:25.599Z,993.14
2018-03-15T02:41:25.548Z,993.17
2018-03-15T02:42:25.515Z,993.10
2018-03-15T02:43:25.441Z,993.11
2018-03-15T02:44:25.394Z,993.07
2018-03-15T02:45:25.340Z,993.11
2018-03-15T02:46:25.287Z,993.05
2018-03-15T02:47:25.262Z,992.96
2018-03-15T02:48:25.195Z,993.02
2018-03-15T02:49:25.136Z,993.05
2018-03-15T02:50:25.080Z,993.02
2018-03-15T02:51:25.029Z,993.00
2018-03-15T02:52:25.006Z,993.04
2018-03-15T02:53:24.930Z,992.95
2018-03-15T02:54:24.875Z,992.98
2018-03-15T02:55:24.824Z,993.02
2018-03-15T02:56:24.776Z,993.00
2018-03-15T02:57:24.754Z,993.00
2018-03-15T02:58:24.672Z,992.99
2018-03-15T02:59:24.620Z,992.97
2018-03-15T03:00:24.567Z,992.92
2018-03-15T03:01:24.515Z,992.97
2018-03-15T03:02:24.468Z,992.97
2018-03-15T03:03:24.437Z,993.02
2018-03-15T03:04:24.362Z,993.02
2018-03-15T03:05:24.313Z,992.96
2018-03-15T03:06:24.259Z,993.00
2018-03-15T03:07:24.213Z,993.05
2018-03-15T03:08:24.181Z,993.02
2018-03-15T03:09:24.101Z,992.99
2018-03-15T03:10:24.054Z,993.05
2018-03-15T03:11:23.999Z,993.04
2018-03-15T03:12:23.951Z,993.06
2018-03-15T03:13:23.920Z,993.11
2018-03-15T03:14:23.847Z,993.10
2018-03-15T03:15:23.800Z,993.13
2018-03-15T03:16:23.739Z,993.19
2018-03-15T03:17:23.706Z,993.12
2018-03-15T03:18:23.661Z,993.11
2018-03-15T03:19:23.589Z,993.13
2018-03-15T03:20:23.538Z,993.18
2018-03-15T03:21:23.486Z,993.16
2018-03-15T03:22:23.431Z,993.15
2018-03-15T03:23:23.406Z,993.08
2018-03-15T03:24:23.331Z,993.12
2018-03-15T03:25:23.280Z,993.14
2018-03-15T03:26:23.231Z,993.15
2018-03-15T03:27:23.175Z,993.15
2018-03-15T03:28:23.153Z,993.17
2018-03-15T03:29:23.076Z,993.19
2018-03-15T03:30:23.022Z,993.18
2018-03-15T03:31:22.967Z,993.17
2018-03-15T03:32:22.915Z,993.15
2018-03-15T03:33:22.895Z,993.18
2018-03-15T03:34:22.815Z,993.13
2018-03-15T03:35:22.759Z,993.12
2018-03-15T03:36:22.714Z,993.08
2018-03-15T03:37:22.661Z,993.09
2018-03-15T03:38:22.629Z,993.11
2018-03-15T03:39:22.556Z,993.09
2018-03-15T03:40:22.508Z,993.07
2018-03-15T03:41:22.456Z,993.05
2018-03-15T03:42:22.405Z,993.02
2018-03-15T03:43:22.374Z,993.01
2018-03-15T03:44:22.302Z,993.01
2018-03-15T03:45:22.248Z,992.98
2018-03-15T03:46:22.202Z,992.99
2018-03-15T03:47:22.146Z,992.98
2018-03-15T03:48:22.118Z,992.98
2018-03-15T03:49:22.041Z,992.97
2018-03-15T03:50:21.987Z,992.96
2018-03-15T03:51:21.936Z,992.97
2018-03-15T03:52:21.887Z,992.98
2018-03-15T03:53:21.857Z,992.99
2018-03-15T03:54:21.786Z,992.97
2018-03-15T03:55:21.732Z,992.97
2018-03-15T03:56:21.681Z,992.99
2018-03-15T03:57:21.627Z,992.96
2018-03-15T03:58:21.602Z,992.94
2018-03-15T03:59:21.524Z,992.93
2018-03-15T04:00:21.472Z,992.95
2018-03-15T04:01:21.421Z,992.92
2018-03-15T04:02:21.370Z,993.02
2018-03-15T04:03:21.366Z,992.98
2018-03-15T04:04:21.277Z,992.98
2018-03-15T04:05:21.219Z,992.97
2018-03-15T04:06:21.166Z,992.95
2018-03-15T04:07:21.111Z,992.95
2018-03-15T04:08:21.084Z,992.91
2018-03-15T04:09:21.011Z,992.92
2018-03-15T04:10:20.958Z,992.93
2018-03-15T04:11:20.930Z,992.91
2018-03-15T04:12:20.853Z,992.90
2018-03-15T04:13:20.828Z,992.87
2018-03-15T04:14:20.751Z,992.89
2018-03-15T04:15:20.702Z,992.88
2018-03-15T04:16:20.653Z,992.85
2018-03-15T04:17:20.598Z,992.79
2018-03-15T04:18:20.572Z,992.83
2018-03-15T04:19:20.493Z,992.82
2018-03-15T04:20:20.442Z,992.89
2018-03-15T04:21:20.388Z,992.91
2018-03-15T04:22:20.338Z,992.83
2018-03-15T04:23:20.312Z,992.84
2018-03-15T04:24:20.234Z,992.87
2018-03-15T04:25:20.186Z,992.85
2018-03-15T04:26:20.129Z,992.84
2018-03-15T04:27:20.077Z,992.86
2018-03-15T04:28:20.063Z,992.80
2018-03-15T04:29:19.976Z,992.76
2018-03-15T04:30:19.924Z,992.74
2018-03-15T04:31:19.873Z,992.78
2018-03-15T04:32:19.826Z,992.73
2018-03-15T04:33:19.791Z,992.74
2018-03-15T04:34:19.717Z,992.65
2018-03-15T04:35:19.669Z,992.67
2018-03-15T04:36:19.616Z,992.65
2018-03-15T04:37:19.564Z,992.68
2018-03-15T04:38:19.536Z,992.64
2018-03-15T04:39:19.460Z,992.60
2018-03-15T04:40:19.409Z,992.64
2018-03-15T04:41:19.357Z,992.62
2018-03-15T04:42:19.304Z,992.57
2018-03-15T04:43:19.278Z,992.56
2018-03-15T04:44:19.202Z,992.59
2018-03-15T04:45:19.155Z,992.55
2018-03-15T04:46:19.096Z,992.45
2018-03-15T04:47:19.047Z,992.59
2018-03-15T04:48:19.014Z,992.58
2018-03-15T04:49:18.942Z,992.57
2018-03-15T04:50:18.890Z,992.56
2018-03-15T04:51:18.843Z,992.62
2018-03-15T04:52:18.794Z,992.58
2018-03-15T04:53:18.764Z,992.52
2018-03-15T04:54:18.687Z,992.44
2018-03-15T04:55:18.634Z,992.49
2018-03-15T04:56:18.581Z,992.45
2018-03-15T04:57:18.529Z,992.38
2018-03-15T04:58:18.502Z,992.40
2018-03-15T04:59:18.427Z,992.38
2018-03-15T05:00:18.373Z,992.39
2018-03-15T05:01:18.321Z,992.41
2018-03-15T05:02:18.272Z,992.40
2018-03-15T05:03:18.246Z,992.39
2018-03-15T05:04:18.171Z,992.36
2018-03-15T05:05:18.124Z,992.33
2018-03-15T05:06:18.063Z,992.34
2018-03-15T05:07:18.013Z,992.28
2018-03-15T05:08:17.987Z,992.31
2018-03-15T05:09:17.913Z,992.31
2018-03-15T05:10:17.858Z,992.26
2018-03-15T05:11:17.804Z,992.27
2018-03-15T05:12:17.754Z,992.22
2018-03-15T05:13:17.727Z,992.21
2018-03-15T05:14:17.656Z,992.20
2018-03-15T05:15:17.601Z,992.18
2018-03-15T05:16:17.548Z,992.16
2018-03-15T05:17:17.497Z,992.20
2018-03-15T05:18:17.472Z,992.19
2018-03-15T05:19:17.395Z,992.18
2018-03-15T05:20:17.342Z,992.19
2018-03-15T05:21:17.292Z,992.15
2018-03-15T05:22:17.240Z,992.13
2018-03-15T05:23:17.207Z,992.16
2018-03-15T05:24:17.138Z,992.18
2018-03-15T05:25:17.084Z,992.09
2018-03-15T05:26:17.033Z,992.06
2018-03-15T05:27:16.986Z,992.13
2018-03-15T05:28:16.954Z,992.05
2018-03-15T05:29:16.878Z,992.05
2018-03-15T05:30:16.829Z,992.08
2018-03-15T05:31:16.777Z,992.04
2018-03-15T05:32:16.727Z,992.00
2018-03-15T05:33:16.691Z,992.07
2018-03-15T05:34:16.618Z,992.01
2018-03-15T05:35:16.580Z,992.01
2018-03-15T05:36:16.535Z,991.99
2018-03-15T05:37:16.497Z,991.98
2018-03-15T05:38:16.441Z,991.98
2018-03-15T05:39:16.360Z,991.96
2018-03-15T05:40:16.314Z,991.93
2018-03-15T05:41:16.255Z,991.95
2018-03-15T05:42:16.206Z,991.93
2018-03-15T05:43:16.176Z,991.92
2018-03-15T05:44:16.099Z,991.91
2018-03-15T05:45:16.051Z,991.90
2018-03-15T05:46:15.996Z,991.82
2018-03-15T05:47:15.948Z,991.78
2018-03-15T05:48:15.918Z,991.79
2018-03-15T05:49:15.848Z,991.78
2018-03-15T05:50:15.791Z,991.73
2018-03-15T05:51:15.735Z,991.73
2018-03-15T05:52:15.690Z,991.80
2018-03-15T05:53:15.635Z,991.79
2018-03-15T05:54:15.612Z,991.78
2018-03-15T05:55:15.536Z,991.75
2018-03-15T05:56:15.480Z,991.74
2018-03-15T05:57:15.432Z,991.79
2018-03-15T05:58:15.378Z,991.79
2018-03-15T05:59:15.347Z,991.79
2018-03-15T06:00:15.271Z,991.81
2018-03-15T06:01:15.226Z,991.76
2018-03-15T06:02:15.167Z,991.78
2018-03-15T06:03:15.117Z,991.71
2018-03-15T06:04:15.090Z,991.72
2018-03-15T06:05:15.017Z,991.71
2018-03-15T06:06:14.966Z,991.70
2018-03-15T06:07:14.913Z,991.63
2018-03-15T06:08:14.863Z,991.58
2018-03-15T06:09:14.838Z,991.54
2018-03-15T06:10:14.761Z,991.56
2018-03-15T06:11:14.706Z,991.53
2018-03-15T06:12:14.653Z,991.50
2018-03-15T06:13:14.599Z,991.54
2018-03-15T06:14:14.572Z,991.48
2018-03-15T06:15:14.496Z,991.45
2018-03-15T06:16:14.447Z,991.44
2018-03-15T06:17:14.399Z,991.56
2018-03-15T06:18:14.339Z,991.50
2018-03-15T06:19:14.331Z,991.53
2018-03-15T06:20:14.242Z,991.50
2018-03-15T06:21:14.185Z,991.54
2018-03-15T06:22:14.135Z,991.57
2018-03-15T06:23:14.087Z,991.56
2018-03-15T06:24:14.063Z,991.57
2018-03-15T06:25:13.982Z,991.57
2018-03-15T06:26:13.929Z,991.58
2018-03-15T06:27:13.877Z,991.49
2018-03-15T06:28:13.826Z,991.47
2018-03-15T06:29:13.801Z,991.43
2018-03-15T06:30:13.724Z,991.41
2018-03-15T06:31:13.675Z,991.28
2018-03-15T06:32:13.622Z,991.31
2018-03-15T06:33:13.569Z,991.32
2018-03-15T06:34:13.540Z,991.38
2018-03-15T06:35:13.467Z,991.37
2018-03-15T06:36:13.418Z,991.37
2018-03-15T06:37:13.360Z,991.37
2018-03-15T06:38:13.316Z,991.36
2018-03-15T06:39:13.283Z,991.37
2018-03-15T06:40:13.202Z,991.37
2018-03-15T06:41:13.160Z,991.40
2018-03-15T06:42:13.105Z,991.39
2018-03-15T06:43:13.052Z,991.34
2018-03-15T06:44:13.026Z,991.37
2018-03-15T06:45:12.948Z,991.37
2018-03-15T06:46:12.901Z,991.35
2018-03-15T06:47:12.845Z,991.39
2018-03-15T06:48:12.795Z,991.39
2018-03-15T06:49:12.769Z,991.44
2018-03-15T06:50:12.736Z,991.42
2018-03-15T06:51:12.703Z,991.44
2018-03-15T06:52:12.632Z,991.46
2018-03-15T06:53:12.672Z,991.43
2018-03-15T06:54:12.512Z,991.47
2018-03-15T06:55:12.434Z,991.45
2018-03-15T06:56:12.384Z,991.47
2018-03-15T06:57:12.333Z,991.46
2018-03-15T06:58:12.289Z,991.45
2018-03-15T06:59:12.255Z,991.49
2018-03-15T07:00:12.180Z,991.51
2018-03-15T07:01:12.133Z,991.55
2018-03-15T07:02:12.077Z,991.50
2018-03-15T07:03:12.028Z,991.54
2018-03-15T07:04:11.998Z,991.50
2018-03-15T07:05:11.926Z,991.48
2018-03-15T07:06:11.874Z,991.47
2018-03-15T07:07:11.823Z,991.41
2018-03-15T07:08:11.773Z,991.44
2018-03-15T07:09:11.746Z,991.36
2018-03-15T07:10:11.672Z,991.36
2018-03-15T07:11:11.620Z,991.35
2018-03-15T07:12:11.576Z,991.37
2018-03-15T07:13:11.519Z,991.37
2018-03-15T07:14:11.495Z,991.33
2018-03-15T07:15:11.420Z,991.38
2018-03-15T07:16:11.373Z,991.33
2018-03-15T07:17:11.320Z,991.32
2018-03-15T07:18:11.270Z,991.41
2018-03-15T07:19:11.243Z,991.36
2018-03-15T07:20:11.171Z,991.38
2018-03-15T07:21:11.118Z,991.36
2018-03-15T07:22:11.072Z,991.33
2018-03-15T07:23:11.020Z,991.24
2018-03-15T07:24:10.991Z,991.26
2018-03-15T07:25:10.921Z,991.17
2018-03-15T07:26:10.869Z,991.21
2018-03-15T07:27:10.817Z,991.21
2018-03-15T07:28:10.772Z,991.18
2018-03-15T07:29:10.742Z,991.18
2018-03-15T07:30:10.668Z,991.10
2018-03-15T07:31:10.618Z,991.12
2018-03-15T07:32:10.569Z,991.07
2018-03-15T07:33:10.517Z,991.09
2018-03-15T07:34:10.492Z,991.12
2018-03-15T07:35:10.419Z,991.06
2018-03-15T07:36:10.370Z,991.06
2018-03-15T07:37:10.323Z,991.08
2018-03-15T07:38:10.275Z,991.02
2018-03-15T07:39:10.244Z,991.16
2018-03-15T07:40:10.174Z,991.01
2018-03-15T07:41:10.122Z,991.17
2018-03-15T07:42:10.070Z,990.95
2018-03-15T07:43:10.022Z,990.96
2018-03-15T07:44:09.996Z,990.92
2018-03-15T07:45:09.919Z,990.93
2018-03-15T07:46:09.873Z,990.94
2018-03-15T07:47:09.825Z,990.95
2018-03-15T07:48:09.776Z,990.91
2018-03-15T07:49:09.747Z,990.94
2018-03-15T07:50:09.673Z,990.94
2018-03-15T07:51:09.620Z,990.94
2018-03-15T07:52:09.572Z,990.98
2018-03-15T07:53:09.524Z,990.93
2018-03-15T07:54:09.497Z,990.91
2018-03-15T07:55:09.423Z,990.94
2018-03-15T07:56:09.374Z,990.98
2018-03-15T07:57:09.323Z,990.99
2018-03-15T07:58:09.277Z,991.00
2018-03-15T07:59:09.247Z,990.99
2018-03-15T08:00:09.175Z,991.04
2018-03-15T08:01:09.136Z,991.00
2018-03-15T08:02:09.095Z,991.07
2018-03-15T08:03:09.024Z,990.99
2018-03-15T08:04:09.002Z,990.90
2018-03-15T08:05:08.929Z,990.98
2018-03-15T08:06:08.881Z,990.93
2018-03-15T08:07:08.834Z,990.93
2018-03-15T08:08:08.780Z,991.02
2018-03-15T08:09:08.754Z,990.94
2018-03-15T08:10:08.682Z,990.82
2018-03-15T08:11:08.635Z,990.91
2018-03-15T08:12:08.604Z,990.80
2018-03-15T08:13:08.536Z,990.99
2018-03-15T08:14:08.510Z,990.89
2018-03-15T08:15:08.433Z,990.85
2018-03-15T08:16:08.383Z,990.82
2018-03-15T08:17:08.339Z,990.80
2018-03-15T08:18:08.288Z,990.89
2018-03-15T08:19:08.268Z,990.80
2018-03-15T08:20:08.188Z,990.83
2018-03-15T08:21:08.149Z,990.82
2018-03-15T08:22:08.091Z,990.86
2018-03-15T08:23:08.041Z,990.85
2018-03-15T08:24:08.016Z,990.83
2018-03-15T08:25:07.946Z,990.83
2018-03-15T08:26:07.895Z,990.84
2018-03-15T08:27:07.841Z,990.83
2018-03-15T08:28:07.795Z,990.87
2018-03-15T08:29:07.773Z,990.85
2018-03-15T08:30:07.696Z,990.89
2018-03-15T08:31:07.649Z,990.81
2018-03-15T08:32:07.599Z,990.84
2018-03-15T08:33:07.549Z,990.79
2018-03-15T08:34:07.522Z,990.79
2018-03-15T08:35:07.461Z,990.76
2018-03-15T08:36:07.401Z,990.73
2018-03-15T08:37:07.353Z,990.82
2018-03-15T08:38:07.301Z,990.78
2018-03-15T08:39:07.282Z,990.79
2018-03-15T08:40:07.228Z,990.75
2018-03-15T08:41:07.161Z,990.77
2018-03-15T08:42:07.114Z,990.78
2018-03-15T08:43:07.061Z,990.75
2018-03-15T08:44:07.034Z,990.83
2018-03-15T08:45:06.988Z,990.82
2018-03-15T08:46:06.916Z,990.85
2018-03-15T08:47:06.864Z,990.89
2018-03-15T08:48:06.819Z,990.90
2018-03-15T08:49:06.769Z,990.82
2018-03-15T08:50:06.750Z,990.82
2018-03-15T08:51:06.681Z,990.89
2018-03-15T08:52:06.629Z,990.91
2018-03-15T08:53:06.573Z,990.89
2018-03-15T08:54:06.526Z,990.92
2018-03-15T08:55:06.498Z,990.89
2018-03-15T08:56:06.428Z,990.96
2018-03-15T08:57:06.385Z,990.93
2018-03-15T08:58:06.331Z,990.93
2018-03-15T08:59:06.289Z,990.94
2018-03-15T09:00:06.259Z,990.93
2018-03-15T09:01:06.187Z,990.95
2018-03-15T09:02:06.137Z,990.90
2018-03-15T09:03:06.090Z,990.89
2018-03-15T09:04:06.168Z,990.94
2018-03-15T09:05:06.019Z,990.94
2018-03-15T09:06:05.949Z,990.88
2018-03-15T09:07:05.895Z,990.97
2018-03-15T09:08:05.850Z,990.93
2018-03-15T09:09:05.817Z,990.93
2018-03-15T09:10:05.777Z,990.95
2018-03-15T09:11:05.705Z,990.98
2018-03-15T09:12:05.658Z,990.94
2018-03-15T09:13:05.608Z,990.90
2018-03-15T09:14:05.563Z,990.94
2018-03-15T09:15:05.536Z,990.90
2018-03-15T09:16:05.470Z,991.02
2018-03-15T09:17:05.475Z,990.86
2018-03-15T09:18:05.373Z,990.96
2018-03-15T09:19:05.322Z,990.89
2018-03-15T09:20:05.299Z,990.84
2018-03-15T09:21:05.225Z,990.96
2018-03-15T09:22:05.177Z,990.76
2018-03-15T09:23:05.178Z,990.77
2018-03-15T09:24:05.092Z,990.70
2018-03-15T09:25:05.061Z,990.67
2018-03-15T09:26:04.982Z,990.66
2018-03-15T09:27:04.940Z,990.57
2018-03-15T09:28:04.919Z,990.66
2018-03-15T09:29:04.883Z,990.55
2018-03-15T09:30:04.826Z,990.67
2018-03-15T09:31:04.746Z,990.65
2018-03-15T09:32:04.698Z,990.70
2018-03-15T09:33:04.650Z,990.67
2018-03-15T09:34:04.602Z,990.79
2018-03-15T09:35:04.579Z,990.74
2018-03-15T09:36:04.509Z,990.73
2018-03-15T09:37:04.460Z,990.81
2018-03-15T09:38:04.414Z,990.80
2018-03-15T09:39:04.364Z,990.77
2018-03-15T09:40:04.340Z,990.75
2018-03-15T09:41:04.268Z,990.75
2018-03-15T09:42:04.259Z,990.76
2018-03-15T09:43:04.173Z,990.74
2018-03-15T09:44:04.129Z,990.73
2018-03-15T09:45:04.100Z,990.77
2018-03-15T09:46:04.075Z,990.72
2018-03-15T09:47:03.989Z,990.67
2018-03-15T09:48:03.960Z,990.71
2018-03-15T09:49:03.888Z,990.73
2018-03-15T09:50:03.916Z,990.68
2018-03-15T09:51:03.802Z,990.70
2018-03-15T09:52:03.745Z,990.63
2018-03-15T09:53:03.697Z,990.56
2018-03-15T09:54:03.647Z,990.53
2018-03-15T09:55:03.627Z,990.53
2018-03-15T09:56:03.554Z,990.46
2018-03-15T09:57:03.506Z,990.47
2018-03-15T09:58:03.459Z,990.48
2018-03-15T09:59:03.412Z,990.42
2018-03-15T10:00:03.390Z,990.45
2018-03-15T10:01:03.323Z,990.40
2018-03-15T10:02:03.270Z,990.38
2018-03-15T10:03:03.220Z,990.37
2018-03-15T10:04:03.179Z,990.34
2018-03-15T10:05:03.155Z,990.37
2018-03-15T10:06:03.083Z,990.35
2018-03-15T10:07:03.032Z,990.34
2018-03-15T10:08:02.989Z,990.30
2018-03-15T10:09:02.946Z,990.33
2018-03-15T10:10:02.913Z,990.35
2018-03-15T10:11:02.845Z,990.33
2018-03-15T10:12:02.801Z,990.29
2018-03-15T10:13:02.748Z,990.28
2018-03-15T10:14:02.703Z,990.30
2018-03-15T10:15:02.679Z,990.26
2018-03-15T10:16:02.608Z,990.26
2018-03-15T10:17:02.561Z,990.18
2018-03-15T10:18:02.515Z,990.17
2018-03-15T10:19:02.464Z,990.20
2018-03-15T10:20:02.442Z,990.14
2018-03-15T10:21:02.371Z,990.12
2018-03-15T10:22:02.324Z,990.05
2018-03-15T10:23:02.280Z,990.06
2018-03-15T10:24:02.229Z,990.07
2018-03-15T10:25:13.607Z,990.07
2018-03-15T10:26:02.136Z,990.01
2018-03-15T10:27:02.088Z,989.99
2018-03-15T10:28:02.046Z,989.98
2018-03-15T10:29:01.997Z,989.98
2018-03-15T10:30:01.971Z,989.95
2018-03-15T10:31:01.909Z,989.96
2018-03-15T10:32:01.860Z,989.94
2018-03-15T10:33:01.807Z,989.98
2018-03-15T10:34:01.762Z,989.96
2018-03-15T10:35:01.735Z,989.85
2018-03-15T10:36:01.664Z,989.89
2018-03-15T10:37:01.622Z,989.86
2018-03-15T10:38:01.570Z,989.79
2018-03-15T10:39:01.524Z,989.86
2018-03-15T10:40:01.498Z,989.71
2018-03-15T10:41:01.428Z,989.76
2018-03-15T10:42:01.384Z,989.73
2018-03-15T10:43:01.334Z,989.69
2018-03-15T10:44:01.287Z,989.66
2018-03-15T10:45:01.266Z,989.74
2018-03-15T10:46:01.190Z,989.70
2018-03-15T10:47:01.171Z,989.81
2018-03-15T10:48:01.100Z,989.68
2018-03-15T10:49:01.053Z,989.80
2018-03-15T10:50:01.026Z,989.89
2018-03-15T10:51:00.957Z,989.76
2018-03-15T10:52:00.912Z,989.66
2018-03-15T10:53:00.865Z,989.79
2018-03-15T10:54:00.817Z,989.51
2018-03-15T10:55:00.793Z,989.59
2018-03-15T10:56:00.716Z,989.41
2018-03-15T10:57:00.675Z,989.50
2018-03-15T10:58:00.627Z,989.49
2018-03-15T10:59:00.579Z,989.59
2018-03-15T11:00:00.593Z,989.56
2018-03-15T11:01:00.489Z,989.59
2018-03-15T11:02:00.436Z,989.54
2018-03-15T11:03:00.395Z,989.57
2018-03-15T11:04:00.343Z,989.63
2018-03-15T11:05:00.325Z,989.48
2018-03-15T11:06:00.256Z,989.53
2018-03-15T11:07:00.206Z,989.47
2018-03-15T11:08:00.158Z,989.45
2018-03-15T11:09:00.114Z,989.40
2018-03-15T11:10:00.088Z,989.45
2018-03-15T11:11:00.018Z,989.42
2018-03-15T11:11:59.973Z,989.33
2018-03-15T11:12:59.925Z,989.33
2018-03-15T11:13:59.878Z,989.28
2018-03-15T11:14:59.856Z,989.30
2018-03-15T11:15:59.783Z,989.26
2018-03-15T11:16:59.736Z,989.28
2018-03-15T11:17:59.691Z,989.36
2018-03-15T11:18:59.648Z,989.25
2018-03-15T11:19:59.627Z,989.20
2018-03-15T11:20:59.550Z,989.21
2018-03-15T11:21:59.502Z,989.19
2018-03-15T11:22:59.453Z,989.12
2018-03-15T11:23:59.455Z,989.11
2018-03-15T11:24:59.367Z,989.12
2018-03-15T11:25:59.342Z,989.11
2018-03-15T11:26:59.265Z,989.08
2018-03-15T11:27:59.226Z,989.18
2018-03-15T11:28:59.175Z,989.15
2018-03-15T11:29:59.128Z,989.06
2018-03-15T11:30:59.103Z,989.05
2018-03-15T11:31:59.037Z,989.02
2018-03-15T11:32:58.986Z,988.98
2018-03-15T11:33:58.936Z,989.01
2018-03-15T11:34:58.892Z,988.95
2018-03-15T11:35:58.871Z,989.00
2018-03-15T11:36:58.799Z,988.98
2018-03-15T11:37:58.750Z,988.94
2018-03-15T11:38:58.702Z,988.99
2018-03-15T11:39:58.660Z,988.97
2018-03-15T11:40:58.632Z,988.95
2018-03-15T11:41:58.562Z,988.94
2018-03-15T11:42:58.519Z,988.88
2018-03-15T11:43:58.466Z,988.87
2018-03-15T11:44:58.423Z,988.95
2018-03-15T11:45:58.407Z,988.85
2018-03-15T11:46:58.333Z,988.92
2018-03-15T11:47:58.285Z,988.81
2018-03-15T11:48:58.238Z,988.85
2018-03-15T11:49:58.189Z,988.91
2018-03-15T11:50:58.164Z,988.89
2018-03-15T11:51:58.097Z,988.91
2018-03-15T11:52:58.049Z,988.91
2018-03-15T11:53:58.001Z,988.91
2018-03-15T11:54:57.955Z,988.88
2018-03-15T11:55:57.935Z,988.92
2018-03-15T11:56:57.866Z,988.89
2018-03-15T11:57:57.812Z,988.85
2018-03-15T11:58:57.770Z,988.78
2018-03-15T11:59:57.724Z,988.72
2018-03-15T12:00:57.698Z,988.73
2018-03-15T12:01:57.629Z,988.73
2018-03-15T12:02:57.583Z,988.67
2018-03-15T12:03:57.536Z,988.66
2018-03-15T12:04:57.488Z,988.70
2018-03-15T12:05:57.463Z,988.68
2018-03-15T12:06:57.393Z,988.60
2018-03-15T12:07:57.352Z,988.62
2018-03-15T12:08:57.301Z,988.58
2018-03-15T12:09:57.257Z,988.64
2018-03-15T12:10:57.232Z,988.59
2018-03-15T12:11:57.162Z,988.63
2018-03-15T12:12:57.111Z,988.52
2018-03-15T12:13:57.069Z,988.50
2018-03-15T12:14:57.021Z,988.58
2018-03-15T12:15:57.005Z,988.47
2018-03-15T12:16:56.929Z,988.51
2018-03-15T12:17:56.883Z,988.47
2018-03-15T12:18:56.839Z,988.39
2018-03-15T12:19:56.786Z,988.42
2018-03-15T12:20:56.829Z,988.37
2018-03-15T12:21:56.698Z,988.39
2018-03-15T12:22:56.649Z,988.27
2018-03-15T12:23:56.603Z,988.31
2018-03-15T12:24:56.555Z,988.29
2018-03-15T12:25:56.528Z,988.28
2018-03-15T12:26:56.461Z,988.29
2018-03-15T12:27:56.414Z,988.30
2018-03-15T12:28:56.372Z,988.28